sensor_id;sensor_type;location;lat;lon;timestamp;P1;durP1;ratioP1;P2;durP2;ratioP2
31734;SDS011;18313;48.518;9.124;2022-07-23T00:02:07;11.60;;;5.68;;
31734;SDS011;18313;48.518;9.124;2022-07-23T00:04:54;9.73;;;5.95;;
31734;SDS011;18313;48.518;9.124;2022-07-23T00:07:41;11.50;;;6.65;;
31734;SDS011;18313;48.518;9.124;2022-07-23T00:10:28;9.57;;;6.25;;
31734;SDS011;18313;48.518;9.124;2022-07-23T00:13:14;6.22;;;5.57;;
31734;SDS011;18313;48.518;9.124;2022-07-23T00:16:01;8.55;;;5.70;;
31734;SDS011;18313;48.518;9.124;2022-07-23T00:18:50;8.68;;;5.85;;
31734;SDS011;18313;48.518;9.124;2022-07-23T00:21:36;7.35;;;5.93;;
31734;SDS011;18313;48.518;9.124;2022-07-23T00:24:23;8.52;;;5.75;;
31734;SDS011;18313;48.518;9.124;2022-07-23T00:27:10;9.82;;;5.60;;
31734;SDS011;18313;48.518;9.124;2022-07-23T00:29:57;8.48;;;5.68;;
31734;SDS011;18313;48.518;9.124;2022-07-23T00:32:46;7.75;;;5.68;;
31734;SDS011;18313;48.518;9.124;2022-07-23T00:35:42;7.53;;;5.57;;
31734;SDS011;18313;48.518;9.124;2022-07-23T00:38:29;9.20;;;5.80;;
31734;SDS011;18313;48.518;9.124;2022-07-23T00:41:16;8.20;;;5.35;;
31734;SDS011;18313;48.518;9.124;2022-07-23T00:44:19;7.65;;;5.22;;
31734;SDS011;18313;48.518;9.124;2022-07-23T00:47:08;8.07;;;5.90;;
31734;SDS011;18313;48.518;9.124;2022-07-23T00:49:55;8.77;;;6.03;;
31734;SDS011;18313;48.518;9.124;2022-07-23T00:52:42;9.35;;;5.35;;
31734;SDS011;18313;48.518;9.124;2022-07-23T00:55:29;7.57;;;4.93;;
31734;SDS011;18313;48.518;9.124;2022-07-23T00:58:16;6.80;;;4.40;;
31734;SDS011;18313;48.518;9.124;2022-07-23T01:01:03;7.20;;;4.68;;
31734;SDS011;18313;48.518;9.124;2022-07-23T01:03:38;6.32;;;4.22;;
31734;SDS011;18313;48.518;9.124;2022-07-23T01:06:25;5.63;;;4.10;;
31734;SDS011;18313;48.518;9.124;2022-07-23T01:09:13;8.07;;;4.30;;
31734;SDS011;18313;48.518;9.124;2022-07-23T01:12:00;5.32;;;4.32;;
31734;SDS011;18313;48.518;9.124;2022-07-23T01:14:57;7.90;;;4.47;;
31734;SDS011;18313;48.518;9.124;2022-07-23T01:17:45;7.60;;;4.20;;
31734;SDS011;18313;48.518;9.124;2022-07-23T01:20:32;6.78;;;4.50;;
31734;SDS011;18313;48.518;9.124;2022-07-23T01:23:20;7.68;;;5.00;;
31734;SDS011;18313;48.518;9.124;2022-07-23T01:26:07;8.55;;;4.50;;
31734;SDS011;18313;48.518;9.124;2022-07-23T01:28:56;8.57;;;5.50;;
31734;SDS011;18313;48.518;9.124;2022-07-23T01:31:44;7.43;;;5.47;;
31734;SDS011;18313;48.518;9.124;2022-07-23T01:34:31;6.88;;;5.45;;
31734;SDS011;18313;48.518;9.124;2022-07-23T01:37:17;6.85;;;5.55;;
31734;SDS011;18313;48.518;9.124;2022-07-23T01:40:05;7.57;;;5.40;;
31734;SDS011;18313;48.518;9.124;2022-07-23T01:42:52;8.48;;;5.53;;
31734;SDS011;18313;48.518;9.124;2022-07-23T01:45:39;7.82;;;5.72;;
31734;SDS011;18313;48.518;9.124;2022-07-23T01:48:26;7.28;;;5.75;;
31734;SDS011;18313;48.518;9.124;2022-07-23T01:51:13;8.90;;;6.45;;
31734;SDS011;18313;48.518;9.124;2022-07-23T01:54:00;7.70;;;6.20;;
31734;SDS011;18313;48.518;9.124;2022-07-23T01:56:47;6.93;;;5.75;;
31734;SDS011;18313;48.518;9.124;2022-07-23T01:59:34;9.93;;;6.47;;
31734;SDS011;18313;48.518;9.124;2022-07-23T02:02:22;9.65;;;6.38;;
31734;SDS011;18313;48.518;9.124;2022-07-23T02:05:09;9.23;;;6.30;;
31734;SDS011;18313;48.518;9.124;2022-07-23T02:07:56;8.50;;;6.32;;
31734;SDS011;18313;48.518;9.124;2022-07-23T02:10:43;8.73;;;5.88;;
31734;SDS011;18313;48.518;9.124;2022-07-23T02:13:30;6.65;;;5.07;;
31734;SDS011;18313;48.518;9.124;2022-07-23T02:16:19;7.78;;;5.35;;
31734;SDS011;18313;48.518;9.124;2022-07-23T02:19:06;7.10;;;5.25;;
31734;SDS011;18313;48.518;9.124;2022-07-23T02:21:53;5.88;;;4.72;;
31734;SDS011;18313;48.518;9.124;2022-07-23T02:24:41;5.50;;;3.78;;
31734;SDS011;18313;48.518;9.124;2022-07-23T02:27:27;6.85;;;3.92;;
31734;SDS011;18313;48.518;9.124;2022-07-23T02:30:14;7.80;;;3.88;;
31734;SDS011;18313;48.518;9.124;2022-07-23T02:33:01;6.43;;;3.85;;
31734;SDS011;18313;48.518;9.124;2022-07-23T02:35:48;6.15;;;4.15;;
31734;SDS011;18313;48.518;9.124;2022-07-23T02:38:35;6.13;;;4.20;;
31734;SDS011;18313;48.518;9.124;2022-07-23T02:41:22;6.00;;;3.92;;
31734;SDS011;18313;48.518;9.124;2022-07-23T02:44:09;5.43;;;4.10;;
31734;SDS011;18313;48.518;9.124;2022-07-23T02:46:56;7.53;;;4.15;;
31734;SDS011;18313;48.518;9.124;2022-07-23T02:49:43;6.05;;;3.85;;
31734;SDS011;18313;48.518;9.124;2022-07-23T02:52:30;5.68;;;3.85;;
31734;SDS011;18313;48.518;9.124;2022-07-23T02:55:17;6.90;;;3.85;;
31734;SDS011;18313;48.518;9.124;2022-07-23T02:58:04;5.47;;;3.80;;
31734;SDS011;18313;48.518;9.124;2022-07-23T03:00:51;6.18;;;3.67;;
31734;SDS011;18313;48.518;9.124;2022-07-23T03:03:39;6.13;;;4.00;;
31734;SDS011;18313;48.518;9.124;2022-07-23T03:06:26;6.45;;;3.90;;
31734;SDS011;18313;48.518;9.124;2022-07-23T03:09:13;6.72;;;3.90;;
31734;SDS011;18313;48.518;9.124;2022-07-23T03:12:00;6.68;;;3.95;;
31734;SDS011;18313;48.518;9.124;2022-07-23T03:14:47;5.95;;;3.90;;
31734;SDS011;18313;48.518;9.124;2022-07-23T03:17:33;6.68;;;3.55;;
31734;SDS011;18313;48.518;9.124;2022-07-23T03:20:20;7.53;;;4.63;;
31734;SDS011;18313;48.518;9.124;2022-07-23T03:23:07;6.50;;;4.05;;
31734;SDS011;18313;48.518;9.124;2022-07-23T03:25:54;5.53;;;4.50;;
31734;SDS011;18313;48.518;9.124;2022-07-23T03:28:41;7.40;;;5.00;;
31734;SDS011;18313;48.518;9.124;2022-07-23T03:31:28;6.47;;;4.18;;
31734;SDS011;18313;48.518;9.124;2022-07-23T03:34:15;5.75;;;4.40;;
31734;SDS011;18313;48.518;9.124;2022-07-23T03:37:04;5.45;;;4.03;;
31734;SDS011;18313;48.518;9.124;2022-07-23T03:39:51;6.20;;;4.22;;
31734;SDS011;18313;48.518;9.124;2022-07-23T03:42:38;7.80;;;4.45;;
31734;SDS011;18313;48.518;9.124;2022-07-23T03:45:27;10.13;;;4.90;;
31734;SDS011;18313;48.518;9.124;2022-07-23T03:48:14;6.35;;;4.70;;
31734;SDS011;18313;48.518;9.124;2022-07-23T03:51:01;7.78;;;4.68;;
31734;SDS011;18313;48.518;9.124;2022-07-23T03:53:48;7.13;;;4.60;;
31734;SDS011;18313;48.518;9.124;2022-07-23T03:56:35;7.95;;;4.72;;
31734;SDS011;18313;48.518;9.124;2022-07-23T03:59:22;8.57;;;4.82;;
31734;SDS011;18313;48.518;9.124;2022-07-23T04:02:09;9.65;;;5.03;;
31734;SDS011;18313;48.518;9.124;2022-07-23T04:04:56;6.70;;;5.05;;
31734;SDS011;18313;48.518;9.124;2022-07-23T04:07:43;8.55;;;4.97;;
31734;SDS011;18313;48.518;9.124;2022-07-23T04:10:30;7.00;;;5.35;;
31734;SDS011;18313;48.518;9.124;2022-07-23T04:13:17;7.55;;;5.00;;
31734;SDS011;18313;48.518;9.124;2022-07-23T04:16:04;7.20;;;5.00;;
31734;SDS011;18313;48.518;9.124;2022-07-23T04:18:52;13.63;;;5.20;;
31734;SDS011;18313;48.518;9.124;2022-07-23T04:21:39;5.30;;;4.30;;
31734;SDS011;18313;48.518;9.124;2022-07-23T04:24:26;8.95;;;5.35;;
31734;SDS011;18313;48.518;9.124;2022-07-23T04:27:13;8.60;;;4.85;;
31734;SDS011;18313;48.518;9.124;2022-07-23T04:30:00;8.07;;;5.05;;
31734;SDS011;18313;48.518;9.124;2022-07-23T04:32:47;7.43;;;4.80;;
31734;SDS011;18313;48.518;9.124;2022-07-23T04:35:34;6.63;;;4.93;;
31734;SDS011;18313;48.518;9.124;2022-07-23T04:38:22;6.63;;;4.47;;
31734;SDS011;18313;48.518;9.124;2022-07-23T04:41:08;7.38;;;5.25;;
31734;SDS011;18313;48.518;9.124;2022-07-23T04:43:55;10.50;;;5.25;;
31734;SDS011;18313;48.518;9.124;2022-07-23T04:46:42;8.70;;;5.22;;
31734;SDS011;18313;48.518;9.124;2022-07-23T04:49:29;7.97;;;4.97;;
31734;SDS011;18313;48.518;9.124;2022-07-23T04:52:16;8.15;;;5.25;;
31734;SDS011;18313;48.518;9.124;2022-07-23T04:55:03;7.32;;;5.63;;
31734;SDS011;18313;48.518;9.124;2022-07-23T04:57:51;11.98;;;5.45;;
31734;SDS011;18313;48.518;9.124;2022-07-23T05:00:38;7.72;;;5.30;;
31734;SDS011;18313;48.518;9.124;2022-07-23T05:03:26;7.47;;;5.05;;
31734;SDS011;18313;48.518;9.124;2022-07-23T05:06:14;7.50;;;4.85;;
31734;SDS011;18313;48.518;9.124;2022-07-23T05:09:01;7.85;;;5.35;;
31734;SDS011;18313;48.518;9.124;2022-07-23T05:11:49;7.95;;;5.03;;
31734;SDS011;18313;48.518;9.124;2022-07-23T05:14:36;10.77;;;5.03;;
31734;SDS011;18313;48.518;9.124;2022-07-23T05:17:23;7.50;;;5.55;;
31734;SDS011;18313;48.518;9.124;2022-07-23T05:20:10;8.38;;;5.00;;
31734;SDS011;18313;48.518;9.124;2022-07-23T05:22:57;6.78;;;4.75;;
31734;SDS011;18313;48.518;9.124;2022-07-23T05:25:43;9.48;;;5.30;;
31734;SDS011;18313;48.518;9.124;2022-07-23T05:28:30;7.43;;;5.20;;
31734;SDS011;18313;48.518;9.124;2022-07-23T05:31:17;7.50;;;5.55;;
31734;SDS011;18313;48.518;9.124;2022-07-23T05:34:04;10.88;;;5.72;;
31734;SDS011;18313;48.518;9.124;2022-07-23T05:36:51;9.05;;;5.75;;
31734;SDS011;18313;48.518;9.124;2022-07-23T05:39:38;7.75;;;5.57;;
31734;SDS011;18313;48.518;9.124;2022-07-23T05:42:25;8.55;;;5.65;;
31734;SDS011;18313;48.518;9.124;2022-07-23T05:45:12;13.43;;;6.32;;
31734;SDS011;18313;48.518;9.124;2022-07-23T05:47:58;7.93;;;5.75;;
31734;SDS011;18313;48.518;9.124;2022-07-23T05:50:46;9.30;;;6.07;;
31734;SDS011;18313;48.518;9.124;2022-07-23T05:53:33;7.78;;;5.95;;
31734;SDS011;18313;48.518;9.124;2022-07-23T05:56:21;9.18;;;5.63;;
31734;SDS011;18313;48.518;9.124;2022-07-23T05:59:08;8.20;;;5.63;;
31734;SDS011;18313;48.518;9.124;2022-07-23T06:01:55;13.07;;;5.60;;
31734;SDS011;18313;48.518;9.124;2022-07-23T06:04:42;7.85;;;5.85;;
31734;SDS011;18313;48.518;9.124;2022-07-23T06:07:29;9.55;;;6.18;;
31734;SDS011;18313;48.518;9.124;2022-07-23T06:10:16;9.55;;;6.43;;
31734;SDS011;18313;48.518;9.124;2022-07-23T06:13:03;8.43;;;6.00;;
31734;SDS011;18313;48.518;9.124;2022-07-23T06:15:50;9.35;;;6.03;;
31734;SDS011;18313;48.518;9.124;2022-07-23T06:18:37;9.77;;;6.45;;
31734;SDS011;18313;48.518;9.124;2022-07-23T06:21:24;10.20;;;5.82;;
31734;SDS011;18313;48.518;9.124;2022-07-23T06:24:31;10.45;;;5.97;;
31734;SDS011;18313;48.518;9.124;2022-07-23T06:27:18;7.65;;;5.70;;
31734;SDS011;18313;48.518;9.124;2022-07-23T06:30:11;9.77;;;5.95;;
31734;SDS011;18313;48.518;9.124;2022-07-23T06:32:59;10.75;;;5.90;;
31734;SDS011;18313;48.518;9.124;2022-07-23T06:35:45;10.05;;;5.90;;
31734;SDS011;18313;48.518;9.124;2022-07-23T06:38:32;8.18;;;5.85;;
31734;SDS011;18313;48.518;9.124;2022-07-23T06:41:19;7.70;;;5.65;;
31734;SDS011;18313;48.518;9.124;2022-07-23T06:44:06;7.45;;;6.00;;
31734;SDS011;18313;48.518;9.124;2022-07-23T06:46:53;8.05;;;5.68;;
31734;SDS011;18313;48.518;9.124;2022-07-23T06:49:40;7.00;;;4.90;;
31734;SDS011;18313;48.518;9.124;2022-07-23T06:52:27;6.70;;;5.30;;
31734;SDS011;18313;48.518;9.124;2022-07-23T06:55:14;9.70;;;5.57;;
31734;SDS011;18313;48.518;9.124;2022-07-23T06:58:01;7.72;;;5.30;;
31734;SDS011;18313;48.518;9.124;2022-07-23T07:00:47;6.55;;;5.10;;
31734;SDS011;18313;48.518;9.124;2022-07-23T07:03:34;6.07;;;5.00;;
31734;SDS011;18313;48.518;9.124;2022-07-23T07:06:21;7.40;;;5.32;;
31734;SDS011;18313;48.518;9.124;2022-07-23T07:09:10;7.55;;;4.95;;
31734;SDS011;18313;48.518;9.124;2022-07-23T07:11:57;8.93;;;4.95;;
31734;SDS011;18313;48.518;9.124;2022-07-23T07:14:44;8.82;;;5.38;;
31734;SDS011;18313;48.518;9.124;2022-07-23T07:17:30;6.03;;;4.78;;
31734;SDS011;18313;48.518;9.124;2022-07-23T07:20:17;7.78;;;4.80;;
31734;SDS011;18313;48.518;9.124;2022-07-23T07:23:04;6.70;;;4.78;;
31734;SDS011;18313;48.518;9.124;2022-07-23T07:25:52;9.00;;;5.20;;
31734;SDS011;18313;48.518;9.124;2022-07-23T07:28:38;7.95;;;5.00;;
31734;SDS011;18313;48.518;9.124;2022-07-23T07:31:25;8.57;;;5.20;;
31734;SDS011;18313;48.518;9.124;2022-07-23T07:34:12;9.25;;;4.82;;
31734;SDS011;18313;48.518;9.124;2022-07-23T07:37:02;5.90;;;5.07;;
31734;SDS011;18313;48.518;9.124;2022-07-23T07:39:49;7.13;;;4.95;;
31734;SDS011;18313;48.518;9.124;2022-07-23T07:42:46;6.25;;;4.63;;
31734;SDS011;18313;48.518;9.124;2022-07-23T07:45:34;6.53;;;4.78;;
31734;SDS011;18313;48.518;9.124;2022-07-23T07:48:21;8.32;;;4.60;;
31734;SDS011;18313;48.518;9.124;2022-07-23T07:51:08;6.45;;;4.57;;
31734;SDS011;18313;48.518;9.124;2022-07-23T07:53:55;6.30;;;4.45;;
31734;SDS011;18313;48.518;9.124;2022-07-23T07:56:42;6.22;;;4.38;;
31734;SDS011;18313;48.518;9.124;2022-07-23T07:59:29;5.85;;;4.35;;
31734;SDS011;18313;48.518;9.124;2022-07-23T08:02:19;7.78;;;4.35;;
31734;SDS011;18313;48.518;9.124;2022-07-23T08:05:06;7.60;;;4.53;;
31734;SDS011;18313;48.518;9.124;2022-07-23T08:07:54;7.32;;;5.20;;
31734;SDS011;18313;48.518;9.124;2022-07-23T08:10:43;5.53;;;4.78;;
31734;SDS011;18313;48.518;9.124;2022-07-23T08:13:30;7.38;;;4.93;;
31734;SDS011;18313;48.518;9.124;2022-07-23T08:16:17;7.85;;;5.00;;
31734;SDS011;18313;48.518;9.124;2022-07-23T08:19:04;6.45;;;4.80;;
31734;SDS011;18313;48.518;9.124;2022-07-23T08:21:51;6.85;;;4.78;;
31734;SDS011;18313;48.518;9.124;2022-07-23T08:24:38;7.72;;;4.90;;
31734;SDS011;18313;48.518;9.124;2022-07-23T08:27:24;7.90;;;4.90;;
31734;SDS011;18313;48.518;9.124;2022-07-23T08:30:11;6.63;;;4.90;;
31734;SDS011;18313;48.518;9.124;2022-07-23T08:32:59;6.40;;;4.90;;
31734;SDS011;18313;48.518;9.124;2022-07-23T08:35:52;7.90;;;5.10;;
31734;SDS011;18313;48.518;9.124;2022-07-23T08:38:39;7.88;;;4.90;;
31734;SDS011;18313;48.518;9.124;2022-07-23T08:41:26;6.72;;;5.07;;
31734;SDS011;18313;48.518;9.124;2022-07-23T08:44:13;7.10;;;4.85;;
31734;SDS011;18313;48.518;9.124;2022-07-23T08:47:02;8.70;;;4.80;;
31734;SDS011;18313;48.518;9.124;2022-07-23T08:49:49;7.00;;;4.70;;
31734;SDS011;18313;48.518;9.124;2022-07-23T08:52:37;8.60;;;5.13;;
31734;SDS011;18313;48.518;9.124;2022-07-23T08:55:26;8.65;;;5.57;;
31734;SDS011;18313;48.518;9.124;2022-07-23T08:58:13;5.75;;;4.57;;
31734;SDS011;18313;48.518;9.124;2022-07-23T09:01:00;7.57;;;5.10;;
31734;SDS011;18313;48.518;9.124;2022-07-23T09:03:47;7.60;;;5.22;;
31734;SDS011;18313;48.518;9.124;2022-07-23T09:06:38;7.38;;;4.88;;
31734;SDS011;18313;48.518;9.124;2022-07-23T09:09:25;6.70;;;4.97;;
31734;SDS011;18313;48.518;9.124;2022-07-23T09:12:16;6.35;;;4.90;;
31734;SDS011;18313;48.518;9.124;2022-07-23T09:15:07;5.80;;;4.70;;
31734;SDS011;18313;48.518;9.124;2022-07-23T09:17:54;7.68;;;5.22;;
31734;SDS011;18313;48.518;9.124;2022-07-23T09:20:41;7.38;;;4.78;;
31734;SDS011;18313;48.518;9.124;2022-07-23T09:23:46;7.47;;;5.10;;
31734;SDS011;18313;48.518;9.124;2022-07-23T09:26:41;6.22;;;4.70;;
31734;SDS011;18313;48.518;9.124;2022-07-23T09:29:38;6.80;;;4.80;;
31734;SDS011;18313;48.518;9.124;2022-07-23T09:32:25;8.13;;;5.00;;
31734;SDS011;18313;48.518;9.124;2022-07-23T09:35:12;6.65;;;4.60;;
31734;SDS011;18313;48.518;9.124;2022-07-23T09:38:02;7.70;;;5.00;;
31734;SDS011;18313;48.518;9.124;2022-07-23T09:43:55;6.63;;;4.68;;
31734;SDS011;18313;48.518;9.124;2022-07-23T09:46:43;7.22;;;4.47;;
31734;SDS011;18313;48.518;9.124;2022-07-23T09:49:34;7.05;;;4.88;;
31734;SDS011;18313;48.518;9.124;2022-07-23T09:52:25;6.88;;;4.70;;
31734;SDS011;18313;48.518;9.124;2022-07-23T09:55:21;6.05;;;4.40;;
31734;SDS011;18313;48.518;9.124;2022-07-23T09:58:24;9.05;;;4.60;;
31734;SDS011;18313;48.518;9.124;2022-07-23T10:01:13;6.65;;;5.07;;
31734;SDS011;18313;48.518;9.124;2022-07-23T10:04:00;6.18;;;4.85;;
31734;SDS011;18313;48.518;9.124;2022-07-23T10:06:50;7.10;;;5.15;;
31734;SDS011;18313;48.518;9.124;2022-07-23T10:09:40;6.05;;;4.68;;
31734;SDS011;18313;48.518;9.124;2022-07-23T10:12:27;6.43;;;4.97;;
31734;SDS011;18313;48.518;9.124;2022-07-23T10:15:20;6.82;;;4.80;;
31734;SDS011;18313;48.518;9.124;2022-07-23T10:18:08;6.82;;;4.88;;
31734;SDS011;18313;48.518;9.124;2022-07-23T10:20:58;6.85;;;5.03;;
31734;SDS011;18313;48.518;9.124;2022-07-23T10:23:47;6.05;;;4.70;;
31734;SDS011;18313;48.518;9.124;2022-07-23T10:27:00;7.25;;;4.90;;
31734;SDS011;18313;48.518;9.124;2022-07-23T10:29:52;8.70;;;5.30;;
31734;SDS011;18313;48.518;9.124;2022-07-23T10:33:00;6.45;;;5.10;;
31734;SDS011;18313;48.518;9.124;2022-07-23T10:36:01;7.70;;;4.95;;
31734;SDS011;18313;48.518;9.124;2022-07-23T10:39:03;6.05;;;4.70;;
31734;SDS011;18313;48.518;9.124;2022-07-23T10:41:51;8.18;;;5.07;;
31734;SDS011;18313;48.518;9.124;2022-07-23T10:44:39;6.25;;;5.03;;
31734;SDS011;18313;48.518;9.124;2022-07-23T10:47:30;6.70;;;4.80;;
31734;SDS011;18313;48.518;9.124;2022-07-23T10:50:32;6.00;;;4.70;;
31734;SDS011;18313;48.518;9.124;2022-07-23T10:53:22;7.13;;;4.65;;
31734;SDS011;18313;48.518;9.124;2022-07-23T10:56:09;7.57;;;4.70;;
31734;SDS011;18313;48.518;9.124;2022-07-23T10:59:03;6.38;;;4.70;;
31734;SDS011;18313;48.518;9.124;2022-07-23T11:01:50;6.40;;;4.90;;
31734;SDS011;18313;48.518;9.124;2022-07-23T11:04:48;6.90;;;4.60;;
31734;SDS011;18313;48.518;9.124;2022-07-23T11:07:36;9.15;;;4.97;;
31734;SDS011;18313;48.518;9.124;2022-07-23T11:10:44;7.03;;;4.75;;
31734;SDS011;18313;48.518;9.124;2022-07-23T11:13:42;6.00;;;4.65;;
31734;SDS011;18313;48.518;9.124;2022-07-23T11:16:38;6.30;;;4.47;;
31734;SDS011;18313;48.518;9.124;2022-07-23T11:19:57;5.07;;;4.38;;
31734;SDS011;18313;48.518;9.124;2022-07-23T11:22:56;10.07;;;5.22;;
31734;SDS011;18313;48.518;9.124;2022-07-23T11:25:45;6.10;;;4.68;;
31734;SDS011;18313;48.518;9.124;2022-07-23T11:28:33;6.45;;;4.53;;
31734;SDS011;18313;48.518;9.124;2022-07-23T11:31:19;7.88;;;4.95;;
31734;SDS011;18313;48.518;9.124;2022-07-23T11:40:21;5.57;;;4.45;;
31734;SDS011;18313;48.518;9.124;2022-07-23T11:43:09;6.07;;;4.80;;
31734;SDS011;18313;48.518;9.124;2022-07-23T11:45:57;5.32;;;4.25;;
31734;SDS011;18313;48.518;9.124;2022-07-23T11:48:45;6.15;;;4.70;;
31734;SDS011;18313;48.518;9.124;2022-07-23T11:51:32;7.60;;;4.78;;
31734;SDS011;18313;48.518;9.124;2022-07-23T11:54:19;6.47;;;4.65;;
31734;SDS011;18313;48.518;9.124;2022-07-23T11:57:06;5.50;;;4.70;;
31734;SDS011;18313;48.518;9.124;2022-07-23T11:59:53;5.55;;;4.43;;
31734;SDS011;18313;48.518;9.124;2022-07-23T12:02:47;7.53;;;5.13;;
31734;SDS011;18313;48.518;9.124;2022-07-23T12:05:38;7.40;;;4.65;;
31734;SDS011;18313;48.518;9.124;2022-07-23T12:08:26;6.72;;;4.50;;
31734;SDS011;18313;48.518;9.124;2022-07-23T12:11:13;5.32;;;4.22;;
31734;SDS011;18313;48.518;9.124;2022-07-23T12:14:00;6.53;;;4.25;;
31734;SDS011;18313;48.518;9.124;2022-07-23T12:16:50;7.65;;;4.93;;
31734;SDS011;18313;48.518;9.124;2022-07-23T12:19:54;5.28;;;4.13;;
31734;SDS011;18313;48.518;9.124;2022-07-23T12:22:46;6.18;;;4.15;;
31734;SDS011;18313;48.518;9.124;2022-07-23T12:25:36;4.80;;;3.97;;
31734;SDS011;18313;48.518;9.124;2022-07-23T12:28:28;5.75;;;4.05;;
31734;SDS011;18313;48.518;9.124;2022-07-23T12:31:25;5.25;;;4.13;;
31734;SDS011;18313;48.518;9.124;2022-07-23T12:34:14;4.90;;;3.90;;
31734;SDS011;18313;48.518;9.124;2022-07-23T12:37:01;8.27;;;4.00;;
31734;SDS011;18313;48.518;9.124;2022-07-23T12:39:48;5.10;;;4.10;;
31734;SDS011;18313;48.518;9.124;2022-07-23T12:42:42;5.32;;;3.70;;
31734;SDS011;18313;48.518;9.124;2022-07-23T12:45:41;5.25;;;4.40;;
31734;SDS011;18313;48.518;9.124;2022-07-23T12:48:39;4.97;;;4.00;;
31734;SDS011;18313;48.518;9.124;2022-07-23T12:51:44;6.30;;;4.00;;
31734;SDS011;18313;48.518;9.124;2022-07-23T12:54:32;7.65;;;4.10;;
31734;SDS011;18313;48.518;9.124;2022-07-23T12:57:19;6.50;;;4.22;;
31734;SDS011;18313;48.518;9.124;2022-07-23T13:00:26;6.40;;;4.18;;
31734;SDS011;18313;48.518;9.124;2022-07-23T13:03:27;5.18;;;4.20;;
31734;SDS011;18313;48.518;9.124;2022-07-23T13:06:24;5.80;;;3.90;;
31734;SDS011;18313;48.518;9.124;2022-07-23T13:09:16;7.38;;;4.10;;
31734;SDS011;18313;48.518;9.124;2022-07-23T13:12:05;5.03;;;4.20;;
31734;SDS011;18313;48.518;9.124;2022-07-23T13:14:52;8.38;;;4.18;;
31734;SDS011;18313;48.518;9.124;2022-07-23T13:17:39;5.90;;;4.07;;
31734;SDS011;18313;48.518;9.124;2022-07-23T13:20:26;5.18;;;3.90;;
31734;SDS011;18313;48.518;9.124;2022-07-23T13:23:14;5.47;;;4.28;;
31734;SDS011;18313;48.518;9.124;2022-07-23T13:26:03;5.15;;;4.00;;
31734;SDS011;18313;48.518;9.124;2022-07-23T13:28:51;6.72;;;4.40;;
31734;SDS011;18313;48.518;9.124;2022-07-23T13:31:38;5.85;;;4.13;;
31734;SDS011;18313;48.518;9.124;2022-07-23T13:34:25;4.68;;;4.18;;
31734;SDS011;18313;48.518;9.124;2022-07-23T13:37:13;5.57;;;4.38;;
31734;SDS011;18313;48.518;9.124;2022-07-23T13:40:00;5.63;;;3.95;;
31734;SDS011;18313;48.518;9.124;2022-07-23T13:43:02;5.57;;;4.10;;
31734;SDS011;18313;48.518;9.124;2022-07-23T13:45:53;6.13;;;4.10;;
31734;SDS011;18313;48.518;9.124;2022-07-23T13:48:40;7.13;;;4.32;;
31734;SDS011;18313;48.518;9.124;2022-07-23T13:51:27;9.07;;;4.75;;
31734;SDS011;18313;48.518;9.124;2022-07-23T13:54:14;6.72;;;4.40;;
31734;SDS011;18313;48.518;9.124;2022-07-23T13:57:02;7.20;;;4.15;;
31734;SDS011;18313;48.518;9.124;2022-07-23T13:59:50;6.55;;;4.50;;
31734;SDS011;18313;48.518;9.124;2022-07-23T14:02:38;6.82;;;4.47;;
31734;SDS011;18313;48.518;9.124;2022-07-23T14:05:28;7.60;;;4.72;;
31734;SDS011;18313;48.518;9.124;2022-07-23T14:08:15;5.85;;;4.35;;
31734;SDS011;18313;48.518;9.124;2022-07-23T14:11:02;6.55;;;4.40;;
31734;SDS011;18313;48.518;9.124;2022-07-23T14:13:53;8.00;;;4.63;;
31734;SDS011;18313;48.518;9.124;2022-07-23T14:16:40;6.53;;;4.50;;
31734;SDS011;18313;48.518;9.124;2022-07-23T14:19:27;7.07;;;4.55;;
31734;SDS011;18313;48.518;9.124;2022-07-23T14:22:16;6.13;;;4.40;;
31734;SDS011;18313;48.518;9.124;2022-07-23T14:25:07;5.35;;;4.22;;
31734;SDS011;18313;48.518;9.124;2022-07-23T14:27:56;5.45;;;4.40;;
31734;SDS011;18313;48.518;9.124;2022-07-23T14:30:42;5.13;;;4.32;;
31734;SDS011;18313;48.518;9.124;2022-07-23T14:33:30;7.47;;;4.35;;
31734;SDS011;18313;48.518;9.124;2022-07-23T14:36:17;7.40;;;4.50;;
31734;SDS011;18313;48.518;9.124;2022-07-23T14:39:04;6.32;;;4.70;;
31734;SDS011;18313;48.518;9.124;2022-07-23T14:41:53;5.90;;;4.20;;
31734;SDS011;18313;48.518;9.124;2022-07-23T14:44:40;6.30;;;4.70;;
31734;SDS011;18313;48.518;9.124;2022-07-23T14:47:28;6.25;;;4.50;;
31734;SDS011;18313;48.518;9.124;2022-07-23T14:50:15;6.93;;;4.40;;
31734;SDS011;18313;48.518;9.124;2022-07-23T14:53:02;8.23;;;5.18;;
31734;SDS011;18313;48.518;9.124;2022-07-23T14:55:50;5.15;;;4.05;;
31734;SDS011;18313;48.518;9.124;2022-07-23T14:58:37;5.80;;;4.43;;
31734;SDS011;18313;48.518;9.124;2022-07-23T15:01:24;5.80;;;4.30;;
31734;SDS011;18313;48.518;9.124;2022-07-23T15:04:11;7.00;;;4.32;;
31734;SDS011;18313;48.518;9.124;2022-07-23T15:07:18;5.47;;;4.43;;
31734;SDS011;18313;48.518;9.124;2022-07-23T15:10:06;6.95;;;4.45;;
31734;SDS011;18313;48.518;9.124;2022-07-23T15:12:55;6.03;;;4.20;;
31734;SDS011;18313;48.518;9.124;2022-07-23T15:15:43;7.05;;;4.60;;
31734;SDS011;18313;48.518;9.124;2022-07-23T15:18:40;6.38;;;3.90;;
31734;SDS011;18313;48.518;9.124;2022-07-23T15:21:27;5.65;;;4.28;;
31734;SDS011;18313;48.518;9.124;2022-07-23T15:24:15;7.57;;;4.13;;
31734;SDS011;18313;48.518;9.124;2022-07-23T15:27:03;6.80;;;4.32;;
31734;SDS011;18313;48.518;9.124;2022-07-23T15:29:50;6.70;;;4.75;;
31734;SDS011;18313;48.518;9.124;2022-07-23T15:32:36;5.72;;;4.18;;
31734;SDS011;18313;48.518;9.124;2022-07-23T15:35:23;6.07;;;4.28;;
31734;SDS011;18313;48.518;9.124;2022-07-23T15:38:10;6.57;;;4.72;;
31734;SDS011;18313;48.518;9.124;2022-07-23T15:40:58;6.28;;;4.15;;
31734;SDS011;18313;48.518;9.124;2022-07-23T15:43:45;5.53;;;4.20;;
31734;SDS011;18313;48.518;9.124;2022-07-23T15:46:32;6.78;;;4.50;;
31734;SDS011;18313;48.518;9.124;2022-07-23T15:49:19;6.97;;;4.28;;
31734;SDS011;18313;48.518;9.124;2022-07-23T15:52:07;6.32;;;4.00;;
31734;SDS011;18313;48.518;9.124;2022-07-23T15:54:55;6.28;;;4.30;;
31734;SDS011;18313;48.518;9.124;2022-07-23T15:57:42;6.55;;;4.47;;
31734;SDS011;18313;48.518;9.124;2022-07-23T16:00:30;8.18;;;5.03;;
31734;SDS011;18313;48.518;9.124;2022-07-23T16:03:17;6.55;;;4.10;;
31734;SDS011;18313;48.518;9.124;2022-07-23T16:06:04;6.25;;;4.65;;
31734;SDS011;18313;48.518;9.124;2022-07-23T16:09:02;6.93;;;4.50;;
31734;SDS011;18313;48.518;9.124;2022-07-23T16:11:52;6.50;;;4.63;;
31734;SDS011;18313;48.518;9.124;2022-07-23T16:14:41;7.55;;;4.65;;
31734;SDS011;18313;48.518;9.124;2022-07-23T16:17:29;6.65;;;4.97;;
31734;SDS011;18313;48.518;9.124;2022-07-23T16:20:16;4.88;;;4.38;;
31734;SDS011;18313;48.518;9.124;2022-07-23T16:23:03;7.60;;;4.75;;
31734;SDS011;18313;48.518;9.124;2022-07-23T16:25:50;7.13;;;4.70;;
31734;SDS011;18313;48.518;9.124;2022-07-23T16:28:38;7.00;;;4.40;;
31734;SDS011;18313;48.518;9.124;2022-07-23T16:31:26;6.15;;;4.63;;
31734;SDS011;18313;48.518;9.124;2022-07-23T16:34:13;5.95;;;4.55;;
31734;SDS011;18313;48.518;9.124;2022-07-23T16:37:00;6.15;;;4.53;;
31734;SDS011;18313;48.518;9.124;2022-07-23T16:39:47;9.38;;;5.90;;
31734;SDS011;18313;48.518;9.124;2022-07-23T16:42:34;6.97;;;4.80;;
31734;SDS011;18313;48.518;9.124;2022-07-23T16:45:21;6.20;;;4.65;;
31734;SDS011;18313;48.518;9.124;2022-07-23T16:48:08;5.88;;;4.72;;
31734;SDS011;18313;48.518;9.124;2022-07-23T16:50:55;6.63;;;4.45;;
31734;SDS011;18313;48.518;9.124;2022-07-23T16:53:42;10.30;;;4.70;;
31734;SDS011;18313;48.518;9.124;2022-07-23T16:56:29;7.50;;;4.68;;
31734;SDS011;18313;48.518;9.124;2022-07-23T16:59:22;6.63;;;4.60;;
31734;SDS011;18313;48.518;9.124;2022-07-23T17:02:09;6.22;;;4.60;;
31734;SDS011;18313;48.518;9.124;2022-07-23T17:04:57;5.72;;;4.53;;
31734;SDS011;18313;48.518;9.124;2022-07-23T17:07:44;6.72;;;4.55;;